sensor_id;sensor_type;location;lat;lon;timestamp;P1;durP1;ratioP1;P2;durP2;ratioP2
38190;SDS011;25191;47.510;19.124;2022-11-11T00:08:45;10.48;;;6.82;;
38190;SDS011;25191;47.510;19.124;2022-11-11T00:29:06;8.82;;;6.13;;
38190;SDS011;25191;47.510;19.124;2022-11-11T00:39:07;8.77;;;6.35;;
38190;SDS011;25191;47.510;19.124;2022-11-11T00:49:07;8.77;;;6.38;;
38190;SDS011;25191;47.510;19.124;2022-11-11T00:59:26;8.68;;;6.38;;
38190;SDS011;25191;47.510;19.124;2022-11-11T01:09:27;9.25;;;5.72;;
38190;SDS011;25191;47.510;19.124;2022-11-11T01:19:27;8.80;;;6.07;;
38190;SDS011;25191;47.510;19.124;2022-11-11T01:29:27;7.82;;;6.20;;
38190;SDS011;25191;47.510;19.124;2022-11-11T01:39:28;8.32;;;5.95;;
38190;SDS011;25191;47.510;19.124;2022-11-11T01:49:30;10.00;;;5.97;;
38190;SDS011;25191;47.510;19.124;2022-11-11T01:59:36;9.73;;;5.50;;
38190;SDS011;25191;47.510;19.124;2022-11-11T02:09:40;6.93;;;5.28;;
38190;SDS011;25191;47.510;19.124;2022-11-11T02:19:57;6.60;;;5.10;;
38190;SDS011;25191;47.510;19.124;2022-11-11T02:29:59;7.38;;;5.72;;
38190;SDS011;25191;47.510;19.124;2022-11-11T02:40:01;7.15;;;5.45;;
38190;SDS011;25191;47.510;19.124;2022-11-11T02:50:06;8.50;;;5.45;;
38190;SDS011;25191;47.510;19.124;2022-11-11T03:00:07;6.80;;;5.18;;
38190;SDS011;25191;47.510;19.124;2022-11-11T03:10:08;7.82;;;5.53;;
38190;SDS011;25191;47.510;19.124;2022-11-11T03:30:29;6.88;;;4.97;;
38190;SDS011;25191;47.510;19.124;2022-11-11T03:40:29;6.45;;;4.78;;
38190;SDS011;25191;47.510;19.124;2022-11-11T03:50:30;9.23;;;4.93;;
38190;SDS011;25191;47.510;19.124;2022-11-11T04:00:36;8.23;;;5.37;;
38190;SDS011;25191;47.510;19.124;2022-11-11T04:10:37;7.38;;;4.90;;
38190;SDS011;25191;47.510;19.124;2022-11-11T04:20:37;6.22;;;4.82;;
38190;SDS011;25191;47.510;19.124;2022-11-11T04:31:03;6.90;;;4.78;;
38190;SDS011;25191;47.510;19.124;2022-11-11T04:41:03;7.22;;;4.78;;
38190;SDS011;25191;47.510;19.124;2022-11-11T04:51:04;5.57;;;4.32;;
38190;SDS011;25191;47.510;19.124;2022-11-11T05:01:04;5.60;;;4.55;;
38190;SDS011;25191;47.510;19.124;2022-11-11T05:11:04;7.55;;;5.38;;
38190;SDS011;25191;47.510;19.124;2022-11-11T05:21:08;8.20;;;4.30;;
38190;SDS011;25191;47.510;19.124;2022-11-11T05:31:19;7.35;;;5.00;;
38190;SDS011;25191;47.510;19.124;2022-11-11T05:41:19;19.10;;;5.10;;
38190;SDS011;25191;47.510;19.124;2022-11-11T05:51:20;15.82;;;5.43;;
38190;SDS011;25191;47.510;19.124;2022-11-11T06:01:27;19.02;;;5.28;;
38190;SDS011;25191;47.510;19.124;2022-11-11T06:11:28;15.50;;;5.70;;
38190;SDS011;25191;47.510;19.124;2022-11-11T06:21:29;15.57;;;6.60;;
38190;SDS011;25191;47.510;19.124;2022-11-11T06:31:51;15.82;;;5.28;;
38190;SDS011;25191;47.510;19.124;2022-11-11T06:41:52;20.00;;;9.23;;
38190;SDS011;25191;47.510;19.124;2022-11-11T06:51:52;11.98;;;7.15;;
38190;SDS011;25191;47.510;19.124;2022-11-11T07:01:58;13.35;;;6.70;;
38190;SDS011;25191;47.510;19.124;2022-11-11T07:11:59;9.55;;;5.88;;
38190;SDS011;25191;47.510;19.124;2022-11-11T07:21:59;11.05;;;5.82;;
38190;SDS011;25191;47.510;19.124;2022-11-11T07:31:59;7.63;;;5.70;;
38190;SDS011;25191;47.510;19.124;2022-11-11T07:41:59;9.45;;;5.78;;
38190;SDS011;25191;47.510;19.124;2022-11-11T07:52:00;10.98;;;5.93;;
38190;SDS011;25191;47.510;19.124;2022-11-11T08:02:00;8.00;;;5.35;;
38190;SDS011;25191;47.510;19.124;2022-11-11T08:12:01;8.38;;;5.40;;
38190;SDS011;25191;47.510;19.124;2022-11-11T08:22:20;9.38;;;6.30;;
38190;SDS011;25191;47.510;19.124;2022-11-11T08:32:20;9.88;;;5.80;;
38190;SDS011;25191;47.510;19.124;2022-11-11T08:42:21;10.05;;;6.53;;
38190;SDS011;25191;47.510;19.124;2022-11-11T08:52:21;10.18;;;7.53;;
38190;SDS011;25191;47.510;19.124;2022-11-11T09:02:22;9.60;;;7.05;;
38190;SDS011;25191;47.510;19.124;2022-11-11T09:12:22;9.77;;;6.95;;
38190;SDS011;25191;47.510;19.124;2022-11-11T09:22:22;9.93;;;6.97;;
38190;SDS011;25191;47.510;19.124;2022-11-11T09:32:23;8.30;;;6.63;;
38190;SDS011;25191;47.510;19.124;2022-11-11T09:42:32;9.40;;;6.95;;
38190;SDS011;25191;47.510;19.124;2022-11-11T09:53:23;9.32;;;7.18;;
38190;SDS011;25191;47.510;19.124;2022-11-11T10:13:16;9.05;;;6.70;;
38190;SDS011;25191;47.510;19.124;2022-11-11T10:23:28;10.55;;;6.93;;
38190;SDS011;25191;47.510;19.124;2022-11-11T10:33:39;8.48;;;6.85;;
38190;SDS011;25191;47.510;19.124;2022-11-11T10:43:45;9.18;;;6.63;;
38190;SDS011;25191;47.510;19.124;2022-11-11T11:04:08;7.35;;;6.20;;
38190;SDS011;25191;47.510;19.124;2022-11-11T11:14:16;7.35;;;5.72;;
38190;SDS011;25191;47.510;19.124;2022-11-11T11:24:24;7.43;;;5.93;;
38190;SDS011;25191;47.510;19.124;2022-11-11T11:34:40;7.50;;;5.95;;
38190;SDS011;25191;47.510;19.124;2022-11-11T11:44:43;7.45;;;5.70;;
38190;SDS011;25191;47.510;19.124;2022-11-11T11:54:52;8.60;;;5.50;;
38190;SDS011;25191;47.510;19.124;2022-11-11T12:26:01;8.60;;;5.20;;
38190;SDS011;25191;47.510;19.124;2022-11-11T12:57:24;19.05;;;4.95;;
38190;SDS011;25191;47.510;19.124;2022-11-11T13:17:33;11.93;;;4.38;;
38190;SDS011;25191;47.510;19.124;2022-11-11T13:37:38;7.82;;;3.80;;
38190;SDS011;25191;47.510;19.124;2022-11-11T13:47:43;12.52;;;4.15;;
38190;SDS011;25191;47.510;19.124;2022-11-11T13:57:47;8.32;;;3.97;;
38190;SDS011;25191;47.510;19.124;2022-11-11T14:07:51;8.27;;;3.90;;
38190;SDS011;25191;47.510;19.124;2022-11-11T14:17:53;6.75;;;3.35;;
38190;SDS011;25191;47.510;19.124;2022-11-11T14:27:54;6.70;;;3.40;;
38190;SDS011;25191;47.510;19.124;2022-11-11T14:38:06;6.40;;;3.63;;
38190;SDS011;25191;47.510;19.124;2022-11-11T14:58:51;9.82;;;3.10;;
38190;SDS011;25191;47.510;19.124;2022-11-11T15:40:15;6.07;;;2.80;;
38190;SDS011;25191;47.510;19.124;2022-11-11T16:00:26;8.65;;;3.72;;
38190;SDS011;25191;47.510;19.124;2022-11-11T16:10:30;6.93;;;3.80;;
38190;SDS011;25191;47.510;19.124;2022-11-11T16:20:34;7.85;;;3.65;;
38190;SDS011;25191;47.510;19.124;2022-11-11T16:30:39;4.05;;;3.03;;
38190;SDS011;25191;47.510;19.124;2022-11-11T16:40:41;5.90;;;3.60;;
38190;SDS011;25191;47.510;19.124;2022-11-11T16:50:52;6.97;;;3.33;;
38190;SDS011;25191;47.510;19.124;2022-11-11T17:01:03;10.15;;;3.53;;
38190;SDS011;25191;47.510;19.124;2022-11-11T17:11:04;25.05;;;3.70;;
38190;SDS011;25191;47.510;19.124;2022-11-11T17:21:06;6.25;;;3.47;;
38190;SDS011;25191;47.510;19.124;2022-11-11T17:31:07;9.07;;;3.80;;
38190;SDS011;25191;47.510;19.124;2022-11-11T17:41:13;7.63;;;3.60;;
38190;SDS011;25191;47.510;19.124;2022-11-11T17:51:13;9.25;;;4.20;;
38190;SDS011;25191;47.510;19.124;2022-11-11T18:01:14;6.80;;;3.55;;
38190;SDS011;25191;47.510;19.124;2022-11-11T18:11:14;6.68;;;3.65;;
38190;SDS011;25191;47.510;19.124;2022-11-11T18:21:15;8.90;;;3.67;;
38190;SDS011;25191;47.510;19.124;2022-11-11T18:31:15;10.20;;;3.90;;
38190;SDS011;25191;47.510;19.124;2022-11-11T18:41:17;7.00;;;3.17;;
38190;SDS011;25191;47.510;19.124;2022-11-11T19:01:20;10.07;;;3.90;;
38190;SDS011;25191;47.510;19.124;2022-11-11T19:11:25;7.72;;;3.75;;
38190;SDS011;25191;47.510;19.124;2022-11-11T19:21:28;6.03;;;3.80;;
38190;SDS011;25191;47.510;19.124;2022-11-11T19:31:30;5.95;;;3.75;;
38190;SDS011;25191;47.510;19.124;2022-11-11T19:41:31;6.72;;;3.85;;
38190;SDS011;25191;47.510;19.124;2022-11-11T19:51:32;8.95;;;3.70;;
38190;SDS011;25191;47.510;19.124;2022-11-11T20:01:33;10.73;;;4.18;;
38190;SDS011;25191;47.510;19.124;2022-11-11T20:11:34;4.72;;;3.50;;
38190;SDS011;25191;47.510;19.124;2022-11-11T20:21:39;5.70;;;3.30;;
38190;SDS011;25191;47.510;19.124;2022-11-11T20:31:43;6.78;;;3.60;;
38190;SDS011;25191;47.510;19.124;2022-11-11T20:41:43;4.30;;;3.47;;
38190;SDS011;25191;47.510;19.124;2022-11-11T20:51:44;4.35;;;3.42;;
38190;SDS011;25191;47.510;19.124;2022-11-11T21:01:45;7.23;;;4.00;;
38190;SDS011;25191;47.510;19.124;2022-11-11T21:11:46;11.83;;;6.40;;
38190;SDS011;25191;47.510;19.124;2022-11-11T21:21:47;10.80;;;5.68;;
38190;SDS011;25191;47.510;19.124;2022-11-11T21:31:48;11.95;;;5.95;;
38190;SDS011;25191;47.510;19.124;2022-11-11T21:41:49;11.93;;;5.60;;
38190;SDS011;25191;47.510;19.124;2022-11-11T21:51:50;8.50;;;5.05;;
38190;SDS011;25191;47.510;19.124;2022-11-11T22:01:50;7.68;;;5.00;;
38190;SDS011;25191;47.510;19.124;2022-11-11T22:11:50;8.85;;;5.43;;
38190;SDS011;25191;47.510;19.124;2022-11-11T22:21:52;9.35;;;5.32;;
38190;SDS011;25191;47.510;19.124;2022-11-11T22:31:53;11.10;;;5.90;;
38190;SDS011;25191;47.510;19.124;2022-11-11T22:41:53;10.35;;;5.78;;
38190;SDS011;25191;47.510;19.124;2022-11-11T22:51:54;11.00;;;5.82;;
38190;SDS011;25191;47.510;19.124;2022-11-11T23:01:56;7.93;;;5.50;;
38190;SDS011;25191;47.510;19.124;2022-11-11T23:11:56;14.83;;;6.67;;
38190;SDS011;25191;47.510;19.124;2022-11-11T23:21:57;8.85;;;5.90;;
38190;SDS011;25191;47.510;19.124;2022-11-11T23:31:57;9.75;;;6.05;;
38190;SDS011;25191;47.510;19.124;2022-11-11T23:41:57;9.50;;;6.10;;
38190;SDS011;25191;47.510;19.124;2022-11-11T23:51:58;9.65;;;6.07;;
